Angus, New Mexico
Current Conditions -  °F | °C
As of 5:35 AM on Sunday 21 Dec 2014 (Local Time) from KSRR Reporting Station
Clear Clear  
Wind Chill: -3°   Ceiling: Unl
Heat Index:   Visibility: 10mi
Dew Point: -8°   Wind: 6mph
Humidity: 55%   Direction: 330°NNW
Pressure: 30.04"   Gusts: NA
Location:  33.7233°N, 105.25°W
Report Text: KSRR 211235Z AUTO 33005KT 10SM CLR 00/M08 A3004 RMK AO2
Loading
Personal Weather Stations






























Interactive Weather Map New forecast layout! Learn more

10-Day Weather Forecast

Advertisements
Track Severe Weather on mobile